La Palma > ESTACION METEOROLÓGICA Bodegas Teneguía - Fuencaliente

DATOS ACTUALES Online

Ultima actulizacion 41 minutos

15.4 ºC

Temperatura

68

Humedad (%)

937.3

Presión (mb)

0

Precipitación (mm)

9.7 SW

Viento (Km/h)

DATOS DIARIOS

Temperatura últimas 24 horas (ºC)

Humedad últimas 24 horas (%)

Presión atmosférica últimas 24 horas (mb)

Precipitaciones últimas 23 horas (mm)

Viento últimas 24 horas (Km/h)

Hora Temperatura (°C) ºC Precipitación (mm) mm Presión (mb) mb Humedad (%) % Viento (Km/h) km/h
29 - 00:00 14.3 0 938 77 7.4 SW
29 - 01:00 14.4 0 938 75 11.4 W
29 - 02:00 14.9 0 938 71 6 SW
29 - 03:00 14.8 0 937 72 14.6 SW
29 - 04:00 14 0 937 75 16.1 W
29 - 05:00 14.6 0 937 74 15.3 W
29 - 06:00 15.1 0 937 70 8.7 SW
29 - 07:00 15 0 937 74 9.5 S
29 - 08:00 15.7 0 938 74 7.5 O
29 - 09:00 16.6 0 938 71 13 O
29 - 10:00 15.8 0 938 75 22.1 SO
29 - 11:00 16.8 0 938 71 18.4 SO
29 - 12:00 17.5 0 938 65 15.4 SO
29 - 13:00 17.7 0 938 63 20.8 SO
29 - 14:00 18.1 0 937 62 26.9 SO
29 - 15:00 18.3 0 937 64 21.6 SO
29 - 16:00 17.7 0 937 66 21.9 SO
29 - 17:00 16.4 0 937 75 24 SO
29 - 18:00 16.3 0 937 75 20.1 SO
29 - 19:00 16.2 0 937 76 23.3 SO
29 - 20:00 16 0 937 77 17.5 SO
29 - 21:00 15.7 0 937 71 25 SO
29 - 22:00 15.2 0 937 72 22.9 SO
29 - 23:00 15.4 0 937 68 9.7 SW
30 - 00:00
Apalmet utiliza cookies propias y de terceros para mejorar la usabilidad y la experiencia web. Política de cookies.